Time;durP1;ratioP1;P1;durP2;ratioP2;P2;SDS_P1;SDS_P2;PMS_P1;PMS_P2;Temp;Humidity;BMP_temperature;BMP_pressure;BME280_temperature;BME280_humidity;BME280_pressure;Samples;Min_cycle;Max_cycle;Signal;HPM_P1;HPM_P2
2023/01/07 00:01:41;;;;;;;22.75;18.85;;;10.50;90.10;;;;;;5137669;27;20031;-70
2023/01/07 00:04:10;;;;;;;22.73;18.75;;;10.50;90.10;;;;;;5136198;27;20031;-76
2023/01/07 00:06:38;;;;;;;22.58;19.20;;;10.50;90.10;;;;;;5132875;27;20138;-70
2023/01/07 00:09:06;;;;;;;23.40;19.45;;;10.50;90.10;;;;;;5138265;27;20035;-70
2023/01/07 00:11:34;;;;;;;21.63;18.52;;;10.50;90.10;;;;;;5140889;27;20482;-70
2023/01/07 00:14:01;;;;;;;25.40;20.08;;;10.50;90.10;;;;;;5142007;27;20074;-70
2023/01/07 00:16:30;;;;;;;23.55;18.83;;;10.60;90.20;;;;;;5142327;27;20066;-75
2023/01/07 00:18:57;;;;;;;24.35;20.42;;;10.60;90.20;;;;;;5138653;27;21370;-76
2023/01/07 00:21:24;;;;;;;26.40;19.50;;;10.60;90.20;;;;;;5138766;27;20509;-76
2023/01/07 00:23:55;;;;;;;24.05;19.80;;;10.60;90.30;;;;;;5106744;27;20490;-75
2023/01/07 00:26:24;;;;;;;23.05;18.95;;;10.60;90.30;;;;;;5138064;27;21380;-76
2023/01/07 00:28:51;;;;;;;24.73;20.02;;;10.60;90.30;;;;;;5141029;27;20108;-76
2023/01/07 00:31:22;;;;;;;24.52;19.33;;;10.70;90.30;;;;;;5122736;27;20062;-76
2023/01/07 00:36:37;;;;;;;23.75;19.63;;;10.70;90.30;;;;;;5144623;27;20053;-76
2023/01/07 00:39:04;;;;;;;24.23;19.77;;;10.70;90.40;;;;;;5139289;27;20474;-76
2023/01/07 00:41:30;;;;;;;25.02;20.27;;;10.70;90.40;;;;;;5149576;27;20039;-75
2023/01/07 00:43:56;;;;;;;23.52;20.13;;;10.70;90.40;;;;;;5132718;28;20042;-76
2023/01/07 00:46:22;;;;;;;23.45;19.08;;;10.70;90.40;;;;;;5114905;28;20027;-76
2023/01/07 00:48:48;;;;;;;26.13;20.30;;;10.70;90.40;;;;;;5132367;28;20066;-76
2023/01/07 00:51:15;;;;;;;22.60;19.67;;;10.80;90.40;;;;;;5132752;27;20066;-75
2023/01/07 00:53:41;;;;;;;25.92;20.58;;;10.80;90.40;;;;;;5132249;28;20129;-75
2023/01/07 00:56:09;;;;;;;25.48;21.35;;;10.80;90.50;;;;;;5132044;28;20043;-74
2023/01/07 00:58:34;;;;;;;27.10;21.40;;;10.80;90.50;;;;;;5132591;28;20470;-75
2023/01/07 01:01:00;;;;;;;25.42;21.30;;;10.80;90.50;;;;;;5149646;27;20051;-74
2023/01/07 01:03:28;;;;;;;25.52;21.33;;;10.80;90.50;;;;;;5132479;27;20513;-74
2023/01/07 01:05:54;;;;;;;23.30;19.92;;;10.80;90.50;;;;;;5131689;27;20084;-75
2023/01/07 01:08:20;;;;;;;22.58;20.17;;;10.80;90.50;;;;;;5115408;27;20027;-75
2023/01/07 01:10:46;;;;;;;23.65;21.10;;;10.90;90.50;;;;;;5149716;27;20035;-75
2023/01/07 01:13:16;;;;;;;21.90;19.35;;;10.90;90.50;;;;;;5132396;28;20043;-74
2023/01/07 01:15:46;;;;;;;22.75;19.65;;;10.90;90.50;;;;;;5131964;27;20470;-76
2023/01/07 01:18:13;;;;;;;22.70;20.27;;;10.90;90.50;;;;;;5119126;27;20035;-75
2023/01/07 01:20:39;;;;;;;23.75;20.13;;;10.90;90.50;;;;;;5137311;27;20404;-75
2023/01/07 01:23:05;;;;;;;22.45;20.05;;;10.90;90.50;;;;;;5119197;27;20043;-75
2023/01/07 01:25:31;;;;;;;22.00;19.58;;;10.90;90.50;;;;;;5135638;27;20508;-75
2023/01/07 01:27:57;;;;;;;22.70;19.98;;;10.90;90.50;;;;;;5146150;27;20031;-75
2023/01/07 01:30:23;;;;;;;22.42;20.08;;;10.90;90.50;;;;;;5152057;27;20114;-76
2023/01/07 01:32:48;;;;;;;23.90;20.77;;;10.90;90.50;;;;;;5135647;27;20046;-75
2023/01/07 01:35:14;;;;;;;23.35;20.10;;;10.90;90.50;;;;;;5120396;27;20039;-76
2023/01/07 01:37:40;;;;;;;24.08;21.33;;;10.90;90.50;;;;;;5135881;27;20039;-76
2023/01/07 01:40:06;;;;;;;22.83;20.42;;;10.90;90.50;;;;;;5153372;27;20046;-76
2023/01/07 01:42:33;;;;;;;21.77;19.42;;;10.90;90.50;;;;;;5135888;27;20431;-75
2023/01/07 01:45:00;;;;;;;20.75;18.55;;;10.90;90.50;;;;;;5135157;27;20115;-75
2023/01/07 01:47:36;;;;;;;20.85;18.65;;;11.00;90.50;;;;;;5132357;27;20393;-75
2023/01/07 01:50:22;;;;;;;22.83;20.33;;;11.00;90.50;;;;;;5135768;27;20043;-75
2023/01/07 01:52:54;;;;;;;21.30;19.00;;;11.00;90.50;;;;;;5135369;27;20075;-75
2023/01/07 01:55:26;;;;;;;22.42;20.05;;;11.00;90.50;;;;;;5128949;27;20131;-74
2023/01/07 01:57:58;;;;;;;22.13;19.83;;;11.00;90.50;;;;;;5118021;27;20164;-75
2023/01/07 02:00:24;;;;;;;23.95;20.55;;;11.00;90.50;;;;;;5135849;27;20062;-75
2023/01/07 02:02:55;;;;;;;22.35;19.92;;;11.00;90.50;;;;;;5135103;27;20035;-75
2023/01/07 02:05:25;;;;;;;23.60;20.33;;;11.00;90.50;;;;;;5132850;27;20110;-75
2023/01/07 02:07:50;;;;;;;22.10;19.75;;;11.00;90.50;;;;;;5135338;27;20041;-75
2023/01/07 02:10:19;;;;;;;22.00;19.67;;;11.00;90.50;;;;;;5135391;27;20039;-75
2023/01/07 02:12:52;;;;;;;22.70;20.23;;;11.10;90.50;;;;;;5117470;27;20046;-75
2023/01/07 02:15:27;;;;;;;21.38;19.17;;;11.00;90.50;;;;;;5131557;27;20038;-75
2023/01/07 02:18:17;;;;;;;21.77;19.48;;;11.00;90.50;;;;;;5135023;27;20047;-75
2023/01/07 02:21:07;;;;;;;19.63;17.65;;;11.00;90.50;;;;;;5135170;27;20394;-75
2023/01/07 02:23:47;;;;;;;21.55;19.30;;;11.00;90.40;;;;;;5086344;27;20065;-75
2023/01/07 02:26:19;;;;;;;21.67;19.45;;;11.10;90.50;;;;;;5135033;27;20394;-75
2023/01/07 02:29:02;;;;;;;20.55;18.35;;;11.10;90.40;;;;;;5134065;27;20050;-75
2023/01/07 02:31:31;;;;;;;20.83;18.77;;;11.10;90.40;;;;;;5134864;27;20058;-75
2023/01/07 02:34:01;;;;;;;20.30;18.02;;;11.10;90.40;;;;;;5134443;27;20046;-75
2023/01/07 02:36:49;;;;;;;20.75;18.58;;;11.10;90.40;;;;;;5134719;27;20031;-75
2023/01/07 02:39:46;;;;;;;19.25;17.20;;;11.10;90.40;;;;;;5117507;27;20084;-75
2023/01/07 02:42:14;;;;;;;20.77;18.60;;;11.10;90.30;;;;;;5117345;27;20043;-75
2023/01/07 02:45:27;;;;;;;18.58;16.60;;;11.10;90.30;;;;;;5132291;27;20044;-75
2023/01/07 02:48:02;;;;;;;19.98;17.88;;;11.10;90.30;;;;;;5133750;27;20039;-75
2023/01/07 02:50:28;;;;;;;19.75;17.15;;;11.00;90.20;;;;;;5134498;27;20035;-75
2023/01/07 02:52:54;;;;;;;19.08;16.85;;;11.10;90.40;;;;;;5137554;27;20164;-75
2023/01/07 02:55:44;;;;;;;19.30;17.30;;;11.00;90.10;;;;;;5096537;28;20047;-75
2023/01/07 02:58:16;;;;;;;19.20;17.30;;;11.00;90.10;;;;;;5117671;27;20061;-75
2023/01/07 03:00:56;;;;;;;19.13;17.10;;;11.00;90.10;;;;;;5134275;27;20082;-75
2023/01/07 03:03:59;;;;;;;18.35;16.33;;;11.00;90.10;;;;;;5133646;27;20039;-75
2023/01/07 03:06:40;;;;;;;19.15;17.10;;;11.00;90.10;;;;;;5116610;27;20058;-75
2023/01/07 03:09:30;;;;;;;18.90;15.80;;;11.00;90.10;;;;;;5134003;27;20470;-75
2023/01/07 03:12:08;;;;;;;20.75;16.90;;;11.00;90.10;;;;;;5133636;27;20047;-75
2023/01/07 03:14:43;;;;;;;17.08;15.27;;;11.00;90.10;;;;;;5136231;27;20075;-75
2023/01/07 03:17:16;;;;;;;19.77;17.67;;;11.00;90.00;;;;;;5126240;27;20463;-75
2023/01/07 03:19:47;;;;;;;17.77;15.88;;;11.10;90.10;;;;;;5116923;27;20043;-76
2023/01/07 03:22:17;;;;;;;18.40;16.48;;;11.00;90.00;;;;;;5116120;27;20126;-75
2023/01/07 03:24:45;;;;;;;18.40;16.45;;;11.00;90.00;;;;;;5116181;27;20067;-75
2023/01/07 03:27:12;;;;;;;19.40;17.17;;;11.00;89.90;;;;;;5133567;27;20049;-75
2023/01/07 03:29:37;;;;;;;20.15;16.08;;;11.00;89.80;;;;;;5133826;27;20066;-75
2023/01/07 03:32:13;;;;;;;17.50;15.10;;;11.00;89.70;;;;;;5133382;27;20067;-75
2023/01/07 03:34:39;;;;;;;17.38;15.52;;;11.00;89.70;;;;;;5133542;27;20371;-75
2023/01/07 03:37:13;;;;;;;17.17;15.07;;;11.00;89.50;;;;;;5133192;27;20043;-75
2023/01/07 03:39:40;;;;;;;19.58;15.80;;;11.00;89.40;;;;;;5133474;27;20077;-75
2023/01/07 03:44:52;;;;;;;17.88;15.98;;;11.00;89.30;;;;;;5131102;27;20413;-75
2023/01/07 03:47:18;;;;;;;20.13;15.60;;;10.90;89.20;;;;;;5133014;27;20035;-75
2023/01/07 03:49:44;;;;;;;18.83;16.27;;;10.90;89.20;;;;;;5116209;27;20142;-75
2023/01/07 03:52:10;;;;;;;20.25;16.50;;;10.90;89.10;;;;;;5116933;27;20036;-75
2023/01/07 03:54:36;;;;;;;18.75;16.75;;;10.90;89.10;;;;;;5132851;27;20129;-75
2023/01/07 03:57:01;;;;;;;20.17;17.05;;;10.90;89.10;;;;;;5139401;27;20078;-75
2023/01/07 03:59:27;;;;;;;17.77;15.88;;;10.90;89.10;;;;;;5112688;28;20043;-75
2023/01/07 04:01:53;;;;;;;18.00;15.75;;;10.90;89.10;;;;;;5128560;27;20094;-75
2023/01/07 04:04:18;;;;;;;19.52;15.57;;;10.90;89.10;;;;;;5115654;27;20066;-74
2023/01/07 04:06:44;;;;;;;18.33;15.95;;;10.90;89.10;;;;;;5132917;27;20038;-75
2023/01/07 04:09:13;;;;;;;16.45;14.35;;;10.90;89.00;;;;;;5133404;27;20118;-75
2023/01/07 04:11:40;;;;;;;18.55;14.90;;;10.90;89.50;;;;;;5132649;27;20050;-75
2023/01/07 04:14:06;;;;;;;18.15;15.10;;;10.90;89.00;;;;;;5132968;27;20093;-75
2023/01/07 04:16:31;;;;;;;17.80;14.57;;;10.90;89.00;;;;;;5132979;27;20520;-75
2023/01/07 04:18:57;;;;;;;15.50;13.80;;;10.90;89.00;;;;;;5150150;27;20047;-75
2023/01/07 04:21:23;;;;;;;16.00;14.30;;;10.90;88.90;;;;;;5132476;27;20050;-69
2023/01/07 04:23:49;;;;;;;17.02;13.98;;;10.90;88.90;;;;;;5132677;27;20172;-69
2023/01/07 04:26:14;;;;;;;16.73;13.85;;;10.90;88.90;;;;;;5149879;27;20039;-69
2023/01/07 04:28:40;;;;;;;15.63;13.48;;;10.90;88.90;;;;;;5132554;27;20470;-69
2023/01/07 04:31:06;;;;;;;14.93;13.07;;;10.90;88.80;;;;;;5094743;28;20064;-69
2023/01/07 04:33:31;;;;;;;15.05;13.38;;;11.00;88.90;;;;;;5135806;27;20031;-69
2023/01/07 04:35:57;;;;;;;15.85;13.43;;;10.90;88.80;;;;;;5149370;27;20046;-69
2023/01/07 04:38:23;;;;;;;13.85;12.32;;;11.00;88.80;;;;;;5132596;27;20039;-69
2023/01/07 04:40:49;;;;;;;15.30;12.40;;;10.90;88.70;;;;;;5132561;27;20058;-69
2023/01/07 04:43:15;;;;;;;13.65;12.27;;;10.90;88.70;;;;;;5131490;27;20485;-69
2023/01/07 04:45:41;;;;;;;13.77;12.23;;;10.90;88.70;;;;;;5115392;28;20035;-69
2023/01/07 04:48:07;;;;;;;14.45;12.20;;;11.00;88.70;;;;;;5114941;28;20088;-70
2023/01/07 04:50:32;;;;;;;14.57;11.95;;;10.90;88.60;;;;;;5132194;27;20031;-69
2023/01/07 04:52:58;;;;;;;13.30;11.57;;;11.00;88.60;;;;;;5137512;27;20071;-69
2023/01/07 04:55:24;;;;;;;14.07;11.60;;;10.90;88.50;;;;;;5136917;27;20072;-69
2023/01/07 04:57:49;;;;;;;14.57;11.55;;;10.90;88.50;;;;;;5136444;27;20046;-69
2023/01/07 05:00:15;;;;;;;14.27;11.32;;;11.00;88.50;;;;;;5136427;27;20316;-69
2023/01/07 05:02:41;;;;;;;13.13;11.25;;;10.90;88.40;;;;;;5136346;27;20054;-69
2023/01/07 05:05:07;;;;;;;14.23;10.63;;;10.90;88.30;;;;;;5101963;27;20035;-69
2023/01/07 05:07:33;;;;;;;12.07;10.38;;;10.90;88.30;;;;;;5136593;27;20027;-69
2023/01/07 05:09:58;;;;;;;13.13;10.23;;;10.90;88.30;;;;;;5148470;27;20637;-69
2023/01/07 05:12:24;;;;;;;12.48;10.38;;;10.90;88.30;;;;;;5099214;28;20304;-69
2023/01/07 05:14:50;;;;;;;11.88;10.60;;;10.90;88.20;;;;;;5133303;27;20043;-69
2023/01/07 05:17:15;;;;;;;13.73;10.15;;;10.90;88.20;;;;;;5136087;27;20041;-70
2023/01/07 05:19:41;;;;;;;15.02;10.48;;;10.90;88.20;;;;;;5136003;27;20057;-69
2023/01/07 05:22:07;;;;;;;12.43;9.55;;;10.90;88.20;;;;;;5131829;27;20075;-69
2023/01/07 05:24:32;;;;;;;14.73;9.80;;;10.90;88.10;;;;;;5135170;27;20039;-69
2023/01/07 05:26:58;;;;;;;14.02;9.55;;;10.90;88.10;;;;;;5135706;27;20050;-69
2023/01/07 05:29:24;;;;;;;10.07;8.77;;;10.90;88.10;;;;;;5135944;27;20042;-69
2023/01/07 05:31:49;;;;;;;12.35;9.57;;;10.90;87.90;;;;;;5135994;27;20039;-69
2023/01/07 05:34:15;;;;;;;12.98;9.30;;;10.90;87.90;;;;;;5118495;27;20039;-70
2023/01/07 05:36:41;;;;;;;12.10;9.30;;;10.90;87.90;;;;;;5136050;27;20125;-69
2023/01/07 05:39:06;;;;;;;12.10;8.82;;;10.90;87.90;;;;;;5118565;27;20039;-69
2023/01/07 05:41:32;;;;;;;11.43;8.82;;;10.90;87.80;;;;;;5135887;27;20070;-69
2023/01/07 05:43:58;;;;;;;11.68;8.68;;;10.90;87.80;;;;;;5118055;27;20436;-69
2023/01/07 05:46:23;;;;;;;10.45;8.32;;;10.90;87.80;;;;;;5101734;27;20126;-69
2023/01/07 05:48:49;;;;;;;9.52;8.13;;;10.90;88.10;;;;;;5118617;27;20035;-69
2023/01/07 05:51:15;;;;;;;10.40;7.78;;;10.90;87.70;;;;;;5135539;27;20103;-69
2023/01/07 05:53:40;;;;;;;10.63;8.80;;;10.90;87.70;;;;;;5118326;27;20047;-69
2023/01/07 05:56:06;;;;;;;15.15;8.40;;;10.90;87.60;;;;;;5135624;27;20049;-69
2023/01/07 05:58:32;;;;;;;11.95;8.15;;;10.90;87.50;;;;;;5135544;27;20046;-69
2023/01/07 06:00:57;;;;;;;11.95;8.80;;;10.90;87.50;;;;;;5117971;27;20035;-69
2023/01/07 06:03:23;;;;;;;14.38;8.95;;;10.90;87.50;;;;;;5133724;27;20497;-69
2023/01/07 06:05:49;;;;;;;10.75;8.35;;;10.90;87.40;;;;;;5135420;27;20122;-69
2023/01/07 06:08:15;;;;;;;11.90;8.38;;;10.80;87.30;;;;;;5135370;27;20050;-69
2023/01/07 06:10:41;;;;;;;9.00;7.68;;;10.90;87.40;;;;;;5135105;27;20045;-69
2023/01/07 06:13:07;;;;;;;11.65;8.10;;;10.80;87.30;;;;;;5134885;27;20590;-69
2023/01/07 06:15:33;;;;;;;10.32;8.45;;;10.90;87.30;;;;;;5118207;27;20046;-69
2023/01/07 06:17:58;;;;;;;11.43;8.10;;;10.80;87.30;;;;;;5135167;27;20473;-69
2023/01/07 06:20:24;;;;;;;9.82;8.25;;;10.80;87.20;;;;;;5134941;27;20512;-69
2023/01/07 06:22:50;;;;;;;12.73;7.95;;;10.80;87.20;;;;;;5134589;27;20051;-69
2023/01/07 06:25:16;;;;;;;10.50;7.63;;;10.90;87.30;;;;;;5134719;27;20039;-69
2023/01/07 06:27:42;;;;;;;10.40;7.80;;;10.80;87.20;;;;;;5135081;27;20393;-69
2023/01/07 06:30:09;;;;;;;9.80;8.40;;;10.80;87.20;;;;;;5134713;27;20038;-69
2023/01/07 06:32:39;;;;;;;12.70;8.63;;;10.80;87.20;;;;;;5117714;27;20054;-69
2023/01/07 06:35:07;;;;;;;10.55;8.20;;;10.80;87.20;;;;;;5134381;27;20078;-69
2023/01/07 06:37:33;;;;;;;10.30;7.47;;;10.90;87.20;;;;;;5117632;27;20439;-69
2023/01/07 06:39:59;;;;;;;13.57;7.82;;;10.90;87.20;;;;;;5117581;27;20042;-69
2023/01/07 06:42:24;;;;;;;11.52;8.05;;;10.80;87.10;;;;;;5134696;27;20375;-69
2023/01/07 06:44:50;;;;;;;8.40;6.97;;;10.80;87.00;;;;;;5117439;27;20092;-69
2023/01/07 06:47:16;;;;;;;12.50;7.97;;;10.90;87.10;;;;;;5134297;27;20118;-69
2023/01/07 06:49:41;;;;;;;8.85;7.53;;;10.80;87.00;;;;;;5134013;27;20038;-69
2023/01/07 06:52:07;;;;;;;10.27;7.50;;;10.80;87.00;;;;;;5134236;27;20039;-69
2023/01/07 06:54:33;;;;;;;9.32;7.18;;;10.80;87.00;;;;;;5133915;27;20095;-69
2023/01/07 06:56:58;;;;;;;10.63;7.25;;;10.90;87.10;;;;;;5133786;27;20061;-69
2023/01/07 06:59:24;;;;;;;9.98;6.82;;;10.80;87.00;;;;;;5117293;27;20134;-69
2023/01/07 07:01:50;;;;;;;9.75;6.78;;;10.80;86.90;;;;;;5134268;27;20046;-69
2023/01/07 07:04:16;;;;;;;7.80;6.65;;;10.90;86.90;;;;;;5133769;27;20039;-69
2023/01/07 07:06:41;;;;;;;7.93;6.05;;;10.80;86.90;;;;;;5133964;27;20031;-69
2023/01/07 07:09:07;;;;;;;7.93;6.35;;;10.80;86.80;;;;;;5133947;27;20028;-69
2023/01/07 07:11:33;;;;;;;8.57;6.22;;;10.80;86.80;;;;;;5134144;27;20051;-69
2023/01/07 07:13:58;;;;;;;9.07;6.78;;;10.80;86.70;;;;;;5133030;27;20495;-70
2023/01/07 07:16:25;;;;;;;8.85;5.82;;;10.80;86.70;;;;;;5133547;27;20050;-69
2023/01/07 07:18:52;;;;;;;9.77;6.15;;;10.80;86.60;;;;;;5133410;27;20035;-69
2023/01/07 07:21:18;;;;;;;6.80;5.53;;;10.80;86.50;;;;;;5133616;27;20581;-69
2023/01/07 07:23:44;;;;;;;9.45;6.38;;;10.80;86.50;;;;;;5133332;27;20050;-69
2023/01/07 07:26:10;;;;;;;8.45;6.03;;;10.80;86.30;;;;;;5133578;27;20039;-69
2023/01/07 07:28:36;;;;;;;9.57;5.75;;;10.80;86.20;;;;;;5133541;27;20027;-69
2023/01/07 07:31:02;;;;;;;7.72;5.40;;;10.80;86.10;;;;;;5116344;27;20099;-69
2023/01/07 07:33:28;;;;;;;8.50;5.82;;;10.80;86.00;;;;;;5116633;27;20483;-69
2023/01/07 07:35:54;;;;;;;9.55;5.60;;;10.70;85.80;;;;;;5133465;27;20046;-69
2023/01/07 07:38:20;;;;;;;7.88;5.35;;;10.70;85.70;;;;;;5132674;27;20071;-69
2023/01/07 07:40:46;;;;;;;7.25;4.93;;;10.70;85.70;;;;;;5133599;27;20039;-69
2023/01/07 07:43:13;;;;;;;7.60;5.25;;;10.70;85.60;;;;;;5133199;27;20035;-69
2023/01/07 07:45:40;;;;;;;7.80;5.75;;;10.60;85.50;;;;;;5133365;27;20378;-69
2023/01/07 07:48:07;;;;;;;7.20;4.95;;;10.60;85.50;;;;;;5115704;27;20490;-69
2023/01/07 07:50:33;;;;;;;7.22;4.60;;;10.60;85.50;;;;;;5133576;27;20046;-69
2023/01/07 07:52:59;;;;;;;7.97;4.88;;;10.60;85.40;;;;;;5115527;27;20054;-69
2023/01/07 07:55:24;;;;;;;5.90;4.63;;;10.50;85.30;;;;;;5115566;27;20054;-69
2023/01/07 07:57:53;;;;;;;6.13;5.00;;;10.50;85.30;;;;;;5115791;27;20039;-69
2023/01/07 08:00:19;;;;;;;5.82;4.88;;;10.50;85.30;;;;;;5115993;27;20049;-70
2023/01/07 08:02:44;;;;;;;7.03;4.97;;;10.40;85.20;;;;;;5132617;27;20049;-70
2023/01/07 08:05:11;;;;;;;7.63;5.35;;;10.40;85.20;;;;;;5132421;27;20127;-70
2023/01/07 08:07:38;;;;;;;6.28;4.72;;;10.40;85.30;;;;;;5114688;27;20035;-70
2023/01/07 08:10:05;;;;;;;6.45;4.47;;;10.40;85.30;;;;;;5116059;27;20081;-70
2023/01/07 08:12:31;;;;;;;9.30;4.68;;;10.40;85.30;;;;;;5132412;27;20032;-70
2023/01/07 08:14:56;;;;;;;5.85;4.10;;;10.30;85.40;;;;;;5115203;27;20042;-70
2023/01/07 08:17:22;;;;;;;8.00;4.93;;;10.30;85.50;;;;;;5115322;27;20050;-70
2023/01/07 08:19:48;;;;;;;5.85;4.00;;;10.30;85.60;;;;;;5132865;27;20125;-70
2023/01/07 08:22:14;;;;;;;6.75;4.35;;;10.30;85.70;;;;;;5132538;27;20051;-70
2023/01/07 08:24:39;;;;;;;5.65;4.60;;;10.30;85.80;;;;;;5132673;27;20083;-70
2023/01/07 08:27:05;;;;;;;5.93;4.20;;;10.20;85.80;;;;;;5131499;27;20047;-70
2023/01/07 08:29:31;;;;;;;6.65;4.57;;;10.30;85.90;;;;;;5132913;27;20516;-75
2023/01/07 08:31:56;;;;;;;6.85;4.63;;;10.20;85.90;;;;;;5132701;27;20603;-75
2023/01/07 08:34:22;;;;;;;6.30;4.05;;;10.20;85.90;;;;;;5132496;27;20035;-75
2023/01/07 08:36:48;;;;;;;5.85;4.20;;;10.20;85.90;;;;;;5094529;28;20036;-76
2023/01/07 08:39:14;;;;;;;7.22;4.70;;;10.20;86.00;;;;;;5095320;28;20122;-76
2023/01/07 08:41:39;;;;;;;8.00;4.28;;;10.20;86.00;;;;;;5112411;28;20048;-75
2023/01/07 08:44:05;;;;;;;6.72;4.35;;;10.20;86.00;;;;;;5107960;28;20114;-76
2023/01/07 08:46:31;;;;;;;5.10;4.20;;;10.20;86.00;;;;;;5098361;27;20482;-75
2023/01/07 08:48:56;;;;;;;6.07;4.15;;;10.20;86.10;;;;;;5132145;27;20035;-75
2023/01/07 08:51:22;;;;;;;7.32;3.88;;;10.20;86.20;;;;;;5140183;27;20039;-75
2023/01/07 08:53:48;;;;;;;5.50;3.72;;;10.20;86.10;;;;;;5121600;28;20039;-76
2023/01/07 08:56:13;;;;;;;7.88;3.90;;;10.20;86.10;;;;;;5115212;28;20050;-75
2023/01/07 08:58:39;;;;;;;5.28;3.55;;;10.20;86.00;;;;;;5132019;28;20455;-75
2023/01/07 09:01:06;;;;;;;5.60;3.67;;;10.20;86.00;;;;;;5132298;27;20039;-76
2023/01/07 09:03:32;;;;;;;4.88;3.38;;;10.20;86.00;;;;;;5132259;28;20458;-75
2023/01/07 09:05:58;;;;;;;5.13;3.33;;;10.30;86.00;;;;;;5094805;28;20075;-75
2023/01/07 09:08:24;;;;;;;4.50;3.70;;;10.30;86.00;;;;;;5114026;28;20067;-69
2023/01/07 09:10:50;;;;;;;5.53;3.72;;;10.30;85.90;;;;;;5111725;28;20035;-69
2023/01/07 09:13:16;;;;;;;6.78;3.30;;;10.30;85.90;;;;;;5121861;28;20050;-69
2023/01/07 09:15:42;;;;;;;5.45;3.33;;;10.30;85.80;;;;;;5128082;27;20059;-69
2023/01/07 09:18:07;;;;;;;5.22;3.22;;;10.30;85.70;;;;;;5132183;27;20042;-69
2023/01/07 09:20:33;;;;;;;8.00;3.30;;;10.30;85.50;;;;;;5131947;28;20035;-69
2023/01/07 09:22:59;;;;;;;5.45;3.25;;;10.30;85.40;;;;;;5131657;27;20527;-69
2023/01/07 09:25:24;;;;;;;5.72;3.10;;;10.40;85.40;;;;;;5115140;28;20043;-69
2023/01/07 09:27:50;;;;;;;5.32;3.63;;;10.40;85.20;;;;;;5132249;28;20478;-68
2023/01/07 09:30:16;;;;;;;5.50;3.15;;;10.40;85.10;;;;;;5132199;27;20510;-69
2023/01/07 09:32:42;;;;;;;4.82;3.40;;;10.40;85.10;;;;;;5114969;28;20050;-68
2023/01/07 09:35:09;;;;;;;4.47;3.42;;;10.40;85.10;;;;;;5114765;28;20058;-68
2023/01/07 09:37:35;;;;;;;5.63;3.15;;;10.40;85.00;;;;;;5133474;27;20039;-68
2023/01/07 09:40:02;;;;;;;5.00;3.15;;;10.50;85.00;;;;;;5136013;27;20043;-68
2023/01/07 09:43:02;;;;;;;4.38;2.92;;;10.50;84.80;;;;;;5135681;27;20035;-68
2023/01/07 09:45:36;;;;;;;5.80;3.28;;;10.50;84.50;;;;;;5119113;27;20382;-68
2023/01/07 09:48:10;;;;;;;4.45;3.20;;;10.50;84.60;;;;;;5135814;27;20092;-68
2023/01/07 09:50:42;;;;;;;4.43;2.47;;;10.60;84.70;;;;;;5118285;27;20042;-68
2023/01/07 09:53:19;;;;;;;5.55;2.65;;;10.60;84.50;;;;;;5134686;27;20100;-68
2023/01/07 09:55:48;;;;;;;5.88;3.05;;;10.60;84.30;;;;;;5120825;27;20039;-68
2023/01/07 09:58:16;;;;;;;4.57;2.67;;;10.60;84.20;;;;;;5135959;27;20065;-68
2023/01/07 10:01:20;;;;;;;5.10;2.78;;;10.60;84.00;;;;;;5135387;27;20046;-68
2023/01/07 10:04:12;;;;;;;5.43;2.90;;;10.70;83.60;;;;;;5122395;27;20038;-68
2023/01/07 10:06:50;;;;;;;3.67;2.35;;;10.70;83.40;;;;;;5134793;27;20478;-68
2023/01/07 10:09:39;;;;;;;5.93;2.95;;;10.70;83.40;;;;;;5118057;27;20046;-68
2023/01/07 10:12:32;;;;;;;4.72;3.00;;;10.70;83.70;;;;;;5134515;27;20042;-68
2023/01/07 10:15:29;;;;;;;3.50;2.38;;;10.70;83.20;;;;;;5118843;27;20514;-68
2023/01/07 10:18:25;;;;;;;3.60;2.50;;;10.80;83.10;;;;;;5131780;27;20054;-68
2023/01/07 10:21:14;;;;;;;3.63;2.30;;;10.80;82.90;;;;;;5115760;27;20044;-68
2023/01/07 10:23:49;;;;;;;5.57;2.53;;;10.80;82.90;;;;;;5131698;27;20075;-69
2023/01/07 10:26:36;;;;;;;4.70;2.10;;;10.80;82.70;;;;;;5122063;27;20035;-68
2023/01/07 10:29:25;;;;;;;4.13;3.47;;;10.90;82.50;;;;;;5134863;27;20043;-74
2023/01/07 10:31:55;;;;;;;5.25;2.50;;;10.90;82.30;;;;;;5134715;27;20394;-74
2023/01/07 10:34:30;;;;;;;3.05;2.17;;;10.90;82.50;;;;;;5134061;27;20077;-74
2023/01/07 10:37:27;;;;;;;4.65;2.10;;;11.00;82.10;;;;;;5139189;27;20438;-74
2023/01/07 10:40:19;;;;;;;4.82;2.30;;;11.00;81.70;;;;;;5136269;27;20131;-74
2023/01/07 10:42:45;;;;;;;3.20;2.45;;;11.00;81.80;;;;;;5117199;27;20043;-69
2023/01/07 10:45:20;;;;;;;3.40;2.47;;;11.00;81.80;;;;;;5134100;27;20046;-68
2023/01/07 10:48:11;;;;;;;4.32;2.25;;;11.10;81.70;;;;;;5133664;27;20039;-68
2023/01/07 10:50:51;;;;;;;4.00;2.25;;;11.10;81.50;;;;;;5134118;27;20039;-69
2023/01/07 10:53:23;;;;;;;3.40;2.03;;;11.10;81.60;;;;;;5151541;27;20517;-68
2023/01/07 10:55:55;;;;;;;3.55;2.08;;;11.20;81.40;;;;;;5116502;27;20076;-69
2023/01/07 10:58:21;;;;;;;2.88;1.75;;;11.20;81.30;;;;;;5134634;27;20093;-69
2023/01/07 11:00:47;;;;;;;4.05;2.38;;;11.20;81.20;;;;;;5134175;27;20123;-68
2023/01/07 11:03:22;;;;;;;3.38;2.47;;;11.20;81.00;;;;;;5133949;27;20035;-69
2023/01/07 11:05:53;;;;;;;3.08;1.63;;;11.30;80.70;;;;;;5116481;27;20375;-69
2023/01/07 11:08:35;;;;;;;2.90;2.25;;;11.30;80.40;;;;;;5132996;27;20031;-69
2023/01/07 11:11:03;;;;;;;3.75;2.08;;;11.30;80.00;;;;;;5118454;27;20123;-69
2023/01/07 11:13:32;;;;;;;4.28;2.05;;;11.30;79.90;;;;;;5133996;27;20047;-69
2023/01/07 11:16:21;;;;;;;3.60;2.05;;;11.30;79.70;;;;;;5133834;27;20084;-68
2023/01/07 11:19:02;;;;;;;3.83;2.35;;;11.40;79.60;;;;;;5133220;27;20438;-68
2023/01/07 11:21:38;;;;;;;4.80;2.88;;;11.40;79.30;;;;;;5133770;27;20464;-68
2023/01/07 11:24:23;;;;;;;4.03;2.20;;;11.40;79.30;;;;;;5116573;27;20516;-69
2023/01/07 11:26:49;;;;;;;3.33;2.05;;;11.40;78.80;;;;;;5133661;27;20031;-68
2023/01/07 11:29:22;;;;;;;2.90;2.00;;;11.40;78.70;;;;;;5113212;27;20067;-68
2023/01/07 11:31:56;;;;;;;3.38;1.98;;;11.40;78.50;;;;;;5133348;27;20035;-73
2023/01/07 11:34:47;;;;;;;4.03;2.05;;;11.40;78.50;;;;;;5133048;27;20051;-68
2023/01/07 11:37:33;;;;;;;2.65;2.10;;;11.40;78.10;;;;;;5133215;27;20039;-68
2023/01/07 11:40:02;;;;;;;2.95;1.95;;;11.40;78.20;;;;;;5133336;27;20047;-69
2023/01/07 11:42:37;;;;;;;2.58;1.88;;;11.40;78.00;;;;;;5133340;27;20486;-69
2023/01/07 11:45:14;;;;;;;4.22;2.03;;;11.40;77.40;;;;;;5133090;27;20039;-68
2023/01/07 11:48:05;;;;;;;5.13;1.88;;;11.50;77.30;;;;;;5116022;27;20035;-69
2023/01/07 11:50:34;;;;;;;3.92;2.38;;;11.40;77.50;;;;;;5131062;27;20039;-68
2023/01/07 11:53:04;;;;;;;4.22;2.50;;;11.40;77.40;;;;;;5132963;27;20461;-67
2023/01/07 11:55:30;;;;;;;3.88;1.60;;;11.40;77.40;;;;;;5139455;27;20039;-69
2023/01/07 11:57:56;;;;;;;3.70;1.90;;;11.50;77.30;;;;;;5133245;27;20131;-68
2023/01/07 12:00:23;;;;;;;2.78;1.70;;;11.50;77.20;;;;;;5115914;27;20039;-69
2023/01/07 12:03:02;;;;;;;5.18;2.22;;;11.50;77.20;;;;;;5132787;27;20112;-69
2023/01/07 12:05:29;;;;;;;2.58;1.55;;;11.50;77.00;;;;;;5133463;27;20035;-69
2023/01/07 12:07:57;;;;;;;2.35;1.42;;;11.50;77.00;;;;;;5133234;27;20043;-74
2023/01/07 12:10:41;;;;;;;3.08;1.60;;;11.60;76.40;;;;;;5133004;27;20387;-75
2023/01/07 12:13:20;;;;;;;2.63;1.60;;;11.60;76.10;;;;;;5102116;27;20043;-75
2023/01/07 12:16:00;;;;;;;3.30;1.50;;;11.60;75.70;;;;;;5132767;27;20090;-75
2023/01/07 12:18:35;;;;;;;3.65;1.85;;;11.60;75.40;;;;;;5132480;27;20047;-74
2023/01/07 12:21:19;;;;;;;2.58;1.58;;;11.50;76.00;;;;;;5115450;27;20046;-74
2023/01/07 12:23:51;;;;;;;3.28;1.67;;;11.60;75.00;;;;;;5131043;27;20426;-74
2023/01/07 12:26:48;;;;;;;3.22;1.55;;;11.60;74.70;;;;;;5115630;27;20531;-74
2023/01/07 12:29:19;;;;;;;2.47;1.50;;;11.60;74.20;;;;;;5132538;27;20171;-74
2023/01/07 12:32:06;;;;;;;2.28;1.63;;;11.60;74.60;;;;;;5132351;27;20130;-74
2023/01/07 12:34:50;;;;;;;4.20;1.58;;;11.60;74.90;;;;;;5115585;28;20501;-74
2023/01/07 12:37:19;;;;;;;2.05;1.15;;;11.60;74.10;;;;;;5132081;27;20043;-74
2023/01/07 12:39:45;;;;;;;3.35;1.42;;;11.60;73.30;;;;;;5132508;27;20039;-74
2023/01/07 12:42:22;;;;;;;2.90;1.30;;;11.70;73.50;;;;;;5132578;27;20046;-74
2023/01/07 12:44:53;;;;;;;2.25;1.50;;;11.60;73.10;;;;;;5139561;27;20050;-74
2023/01/07 12:47:40;;;;;;;3.20;1.00;;;11.60;73.20;;;;;;5139183;27;20038;-74
2023/01/07 12:50:12;;;;;;;2.40;1.38;;;11.60;72.20;;;;;;5140269;27;20030;-74
2023/01/07 12:53:06;;;;;;;1.80;1.25;;;11.60;72.60;;;;;;5140414;27;20125;-74
2023/01/07 12:55:35;;;;;;;2.33;1.58;;;11.60;72.50;;;;;;5140978;27;20626;-74
2023/01/07 12:58:24;;;;;;;2.85;1.20;;;11.60;72.60;;;;;;5142990;27;20038;-74
2023/01/07 13:01:14;;;;;;;2.17;0.95;;;11.70;71.50;;;;;;5141766;27;20051;-74